Time;durP1;ratioP1;P1;durP2;ratioP2;P2;SDS_P1;SDS_P2;PMS_P1;PMS_P2;Temp;Humidity;BMP_temperature;BMP_pressure;BME280_temperature;BME280_humidity;BME280_pressure;Samples;Min_cycle;Max_cycle;Signal;HPM_P1;HPM_P2
2024/04/01 00:04:32;;;;;;;;;13.00;13.00;;;;;26.86;31.73;100759.81;242371;1179;88287;-81
2024/04/01 00:10:10;;;;;;;;;13.00;11.00;;;;;26.87;31.76;100755.32;241811;1180;88310;-81
2024/04/01 00:16:17;;;;;;;;;10.00;10.00;;;;;26.87;31.63;100751.38;242400;1185;89265;-81
2024/04/01 00:21:23;;;;;;;;;10.67;10.00;;;;;26.87;31.70;100755.60;240452;1185;88647;-79
2024/04/01 00:26:46;;;;;;;;;12.00;11.00;;;;;26.86;31.66;100756.91;241316;1186;88507;-84
2024/04/01 00:32:22;;;;;;;;;14.00;12.00;;;;;26.84;31.84;100755.35;241642;1182;88574;-78
2024/04/01 00:37:35;;;;;;;;;12.50;12.00;;;;;26.84;31.80;100756.41;242192;1185;87713;-80
2024/04/01 00:43:10;;;;;;;;;11.00;11.00;;;;;26.82;32.06;100759.09;242105;1186;88515;-79
2024/04/01 00:48:32;;;;;;;;;15.00;14.00;;;;;26.81;32.06;100757.59;242134;1186;87550;-82
2024/04/01 00:54:09;;;;;;;;;13.00;13.00;;;;;26.82;31.98;100761.99;241952;1186;87589;-79
2024/04/01 00:59:19;;;;;;;;;13.50;13.50;;;;;26.81;32.00;100758.14;241643;1183;89013;-84
2024/04/01 01:04:58;;;;;;;;;13.00;11.00;;;;;26.79;32.14;100755.63;242160;1183;88801;-77
2024/04/01 01:10:25;;;;;;;;;11.00;9.50;;;;;26.79;31.88;100745.94;241421;1183;88292;-78
2024/04/01 01:16:02;;;;;;;;;9.00;9.00;;;;;26.81;31.83;100742.33;240279;1180;89485;-79
2024/04/01 01:21:19;;;;;;;;;12.00;11.50;;;;;26.81;32.04;100738.50;242656;1183;87658;-81
2024/04/01 01:26:56;;;;;;;;;10.00;10.00;;;;;26.78;32.12;100739.97;242730;1183;88435;-78
2024/04/01 01:32:06;;;;;;;;;11.33;11.33;;;;;26.78;32.17;100738.10;241920;1183;89198;-81
2024/04/01 01:37:13;;;;;;;;;11.67;11.67;;;;;26.77;32.09;100743.36;241471;1184;87909;-79
2024/04/01 01:42:18;;;;;;;;;11.00;11.00;;;;;26.77;32.10;100750.66;241325;1180;88991;-84
2024/04/01 01:47:23;;;;;;;;;11.33;11.00;;;;;26.76;32.10;100754.20;241523;1183;88067;-79
2024/04/01 01:52:28;;;;;;;;;12.00;12.00;;;;;26.76;32.04;100752.35;241439;1183;88805;-81
2024/04/01 01:57:34;;;;;;;;;12.00;12.00;;;;;26.76;32.13;100755.30;241373;1183;88171;-81
2024/04/01 02:02:58;;;;;;;;;11.00;11.00;;;;;26.75;32.03;100753.48;242240;1183;87860;-78
2024/04/01 02:08:35;;;;;;;;;16.67;12.00;;;;;26.75;32.21;100749.14;242357;1183;88021;-84
2024/04/01 02:14:00;;;;;;;;;13.50;11.50;;;;;26.74;32.14;100753.52;242726;1183;88234;-81
2024/04/01 02:19:33;;;;;;;;;12.00;12.00;;;;;26.73;32.04;100759.86;242927;1185;88278;-81
2024/04/01 02:25:11;;;;;;;;;13.00;13.00;;;;;26.73;32.22;100761.23;242750;1180;89330;-84
2024/04/01 02:30:22;;;;;;;;;12.00;12.00;;;;;26.70;32.11;100750.00;243239;1180;88742;-79
2024/04/01 02:35:54;;;;;;;;;10.00;10.00;;;;;26.66;32.19;100750.20;241635;1180;87576;-79
2024/04/01 02:41:30;;;;;;;;;14.00;14.00;;;;;26.61;32.08;100752.95;240516;1179;88971;-79
2024/04/01 02:46:44;;;;;;;;;;;;;;;26.56;32.42;100756.37;239905;1182;88120;-82
2024/04/01 02:53:03;;;;;;;;;14.00;13.00;;;;;26.54;32.39;100758.98;240904;1179;87294;-79
2024/04/01 02:58:22;;;;;;;;;13.00;13.00;;;;;26.56;32.31;100766.96;241397;1186;87650;-83
2024/04/01 03:03:28;;;;;;;;;13.50;13.50;;;;;26.54;32.44;100757.83;240647;1183;88577;-81
2024/04/01 03:09:06;;;;;;;;;17.00;14.00;;;;;26.56;32.33;100760.66;240513;1187;88722;-82
2024/04/01 03:14:21;;;;;;;;;13.50;13.50;;;;;26.57;32.10;100752.49;241108;1183;87746;-85
2024/04/01 03:19:58;;;;;;;;;12.00;12.00;;;;;26.56;32.15;100757.04;242033;1182;88670;-80
2024/04/01 03:25:35;;;;;;;;;13.00;13.00;;;;;26.56;32.01;100755.10;242528;1183;87649;-81
2024/04/01 03:30:45;;;;;;;;;15.00;11.00;;;;;26.54;32.14;100754.20;241818;1192;87871;-82
2024/04/01 03:36:13;;;;;;;;;13.00;12.00;;;;;26.54;31.96;100759.83;241918;1180;89526;-81
2024/04/01 03:41:51;;;;;;;;;13.00;13.00;;;;;26.54;32.13;100762.91;241681;1184;88380;-79
2024/04/01 03:47:07;;;;;;;;;12.50;12.50;;;;;26.53;32.05;100770.30;241200;1186;88272;-79
2024/04/01 03:52:45;;;;;;;;;14.00;12.00;;;;;26.52;31.96;100768.27;241655;1185;89084;-79
2024/04/01 03:58:17;;;;;;;;;17.00;13.00;;;;;26.52;31.88;100769.63;241256;1186;88510;-80
2024/04/01 04:03:53;;;;;;;;;11.00;11.00;;;;;26.53;31.80;100763.44;243114;1183;88299;-82
2024/04/01 04:09:18;;;;;;;;;12.00;12.00;;;;;26.51;31.80;100767.70;241068;1183;88221;-82
2024/04/01 04:14:56;;;;;;;;;14.00;13.00;;;;;26.51;31.79;100772.35;241307;1183;86706;-78
2024/04/01 04:20:29;;;;;;;;;10.00;10.00;;;;;26.51;31.86;100776.86;241678;1179;88950;-79
2024/04/01 04:26:08;;;;;;;;;14.00;12.50;;;;;26.52;31.61;100776.10;241495;1183;89446;-82
2024/04/01 04:31:28;;;;;;;;;16.00;13.00;;;;;26.53;31.63;100773.76;241357;1185;89252;-78
2024/04/01 04:37:07;;;;;;;;;13.00;13.00;;;;;26.54;31.61;100775.05;242109;1185;88442;-84
2024/04/01 04:42:20;;;;;;;;;13.50;13.50;;;;;26.55;31.81;100769.08;242886;1185;88413;-84
2024/04/01 04:47:32;;;;;;;;;13.50;13.00;;;;;26.60;32.04;100770.33;242984;1181;87798;-87
2024/04/01 04:52:37;;;;;;;;;14.25;13.00;;;;;26.72;32.52;100768.18;244196;1183;88283;-84
2024/04/01 04:57:43;;;;;;;;;13.67;11.33;;;;;26.86;32.91;100768.59;244330;1180;88208;-82
2024/04/01 05:02:57;;;;;;;;;16.75;12.25;;;;;27.03;33.61;100770.47;243690;1180;88107;-82
2024/04/01 05:08:03;;;;;;;;;14.67;13.00;;;;;27.30;34.04;100773.30;243608;1180;88066;-81
2024/04/01 05:13:07;;;;;;;;;12.00;10.33;;;;;27.49;34.56;100778.47;243320;1184;88877;-80
2024/04/01 05:18:13;;;;;;;;;12.00;12.00;;;;;27.59;35.36;100785.45;244109;1179;87691;-80
2024/04/01 05:23:16;;;;;;;;;16.67;12.67;;;;;27.52;32.87;100786.64;243205;1180;88735;-79
2024/04/01 05:28:21;;;;;;;;;18.67;16.33;;;;;27.35;32.28;100785.85;241443;1183;88291;-79
2024/04/01 05:33:31;;;;;;;;;14.75;13.75;;;;;27.36;31.98;100787.02;243864;1184;88881;-79
2024/04/01 05:38:35;;;;;;;;;15.00;14.00;;;;;27.35;31.56;100787.67;243588;1179;87977;-80
2024/04/01 05:43:39;;;;;;;;;12.50;12.50;;;;;27.34;31.74;100789.68;243892;1183;90201;-77
2024/04/01 05:48:43;;;;;;;;;16.00;11.75;;;;;27.36;31.71;100791.63;240841;1181;88561;-77
2024/04/01 05:53:50;;;;;;;;;12.50;12.50;;;;;27.42;31.62;100793.26;244035;1180;88242;-86
2024/04/01 05:58:59;;;;;;;;;14.33;14.33;;;;;27.53;31.72;100801.82;244086;1180;89434;-83
2024/04/01 06:04:03;;;;;;;;;15.50;11.00;;;;;27.47;32.02;100799.32;243713;1186;89156;-83
2024/04/01 06:09:12;;;;;;;;;18.25;13.00;;;;;27.47;32.90;100798.93;244311;1180;89257;-82
2024/04/01 06:14:33;;;;;;;;;11.25;10.50;;;;;27.56;33.48;100797.14;244033;1184;88473;-80
2024/04/01 06:19:38;;;;;;;;;16.67;15.33;;;;;27.63;34.27;100797.96;243946;1183;88883;-77
2024/04/01 06:24:42;;;;;;;;;16.33;13.33;;;;;27.85;34.94;100801.88;243557;1180;89062;-78
2024/04/01 06:29:45;;;;;;;;;18.50;14.25;;;;;28.01;35.16;100800.77;243679;1179;59510;-78
2024/04/01 06:34:52;;;;;;;;;14.00;12.50;;;;;28.20;35.46;100805.61;244243;1186;88927;-80
2024/04/01 06:39:58;;;;;;;;;13.00;12.00;;;;;28.34;36.01;100810.20;243809;1180;88525;-76
2024/04/01 06:45:04;;;;;;;;;16.00;11.33;;;;;28.47;36.33;100811.80;243887;1183;88011;-73
2024/04/01 06:50:09;;;;;;;;;16.33;13.00;;;;;28.54;36.46;100817.94;243855;1183;87754;-74
2024/04/01 06:55:14;;;;;;;;;21.00;16.67;;;;;28.52;35.91;100825.17;241409;1180;87592;-73
2024/04/01 07:00:27;;;;;;;;;17.50;15.50;;;;;28.30;33.77;100822.14;243090;1185;88283;-79
2024/04/01 07:05:39;;;;;;;;;17.50;16.25;;;;;27.99;35.06;100822.58;243247;1186;88696;-73
2024/04/01 07:10:44;;;;;;;;;16.25;10.75;;;;;28.04;37.62;100813.77;243162;1179;88301;-74
2024/04/01 07:15:47;;;;;;;;;15.33;13.33;;;;;28.22;39.03;100802.48;243532;1179;87775;-74
2024/04/01 07:20:52;;;;;;;;;16.00;13.75;;;;;28.42;39.76;100802.11;243253;1180;88500;-78
2024/04/01 07:25:57;;;;;;;;;14.00;13.50;;;;;28.44;37.73;100806.37;243468;1184;88745;-80
2024/04/01 07:31:08;;;;;;;;;15.33;15.00;;;;;28.35;36.44;100798.73;243370;1179;87707;-80
2024/04/01 07:36:12;;;;;;;;;15.00;13.33;;;;;28.33;35.55;100791.58;242985;1179;88078;-73
2024/04/01 07:41:17;;;;;;;;;18.75;17.00;;;;;28.28;35.76;100795.98;243095;1180;88517;-71
2024/04/01 07:46:21;;;;;;;;;15.25;14.25;;;;;28.31;36.94;100796.30;243203;1180;87011;-69
2024/04/01 07:51:25;;;;;;;;;15.00;14.50;;;;;28.44;37.05;100799.83;241988;1180;88161;-73
2024/04/01 07:56:30;;;;;;;;;18.33;15.33;;;;;28.55;37.62;100803.56;243346;1180;88297;-71
2024/04/01 08:01:33;;;;;;;;;17.25;12.50;;;;;28.59;36.45;100796.02;243248;1183;88685;-75
2024/04/01 08:06:38;;;;;;;;;19.67;17.00;;;;;28.39;36.50;100800.42;243336;1181;88822;-72
2024/04/01 08:11:46;;;;;;;;;16.67;14.33;;;;;28.21;36.17;100802.93;243710;1180;88528;-72
2024/04/01 08:16:50;;;;;;;;;22.00;17.75;;;;;28.09;36.70;100802.45;241809;1183;89526;-77
2024/04/01 08:21:54;;;;;;;;;19.67;18.00;;;;;28.04;36.72;100802.66;241188;1179;88262;-71
2024/04/01 08:26:58;;;;;;;;;15.50;12.50;;;;;28.03;36.64;100796.07;243578;1179;88330;-70
2024/04/01 08:32:11;;;;;;;;;15.67;14.67;;;;;27.98;36.55;100792.74;243316;1179;88762;-71
2024/04/01 08:37:27;;;;;;;;;16.25;14.00;;;;;27.95;36.35;100789.30;243343;1179;89255;-69
2024/04/01 08:42:34;;;;;;;;;14.00;14.00;;;;;27.92;36.53;100792.56;243568;1179;88975;-69
2024/04/01 08:47:43;;;;;;;;;17.33;15.33;;;;;27.90;36.05;100794.36;241636;1181;89144;-72
2024/04/01 08:52:57;;;;;;;;;17.00;15.50;;;;;27.92;36.02;100797.23;241832;1179;88729;-69
2024/04/01 08:58:01;;;;;;;;;20.25;15.25;;;;;27.95;35.37;100787.42;241993;1180;88813;-77
2024/04/01 09:03:06;;;;;;;;;16.75;14.00;;;;;27.95;35.29;100782.77;243848;1179;88754;-73
2024/04/01 09:08:11;;;;;;;;;18.50;14.50;;;;;27.96;35.27;100771.50;243887;1184;89357;-75
2024/04/01 09:13:17;;;;;;;;;19.25;16.75;;;;;27.96;35.20;100771.89;243938;1183;88438;-75
2024/04/01 09:18:21;;;;;;;;;16.33;13.67;;;;;27.96;35.13;100757.97;243497;1180;89046;-75
2024/04/01 09:23:26;;;;;;;;;17.33;14.33;;;;;27.98;34.88;100751.23;243659;1179;88788;-75
2024/04/01 09:28:30;;;;;;;;;18.67;16.00;;;;;28.03;34.86;100740.35;243484;1180;88874;-74
2024/04/01 09:33:35;;;;;;;;;16.67;13.33;;;;;28.09;34.57;100738.83;243275;1181;89211;-74
2024/04/01 09:38:41;;;;;;;;;16.00;13.00;;;;;28.15;34.50;100731.86;243769;1179;88845;-74
2024/04/01 09:43:47;;;;;;;;;17.75;17.00;;;;;28.23;34.21;100725.02;244468;1182;88559;-74
2024/04/01 09:48:55;;;;;;;;;13.50;13.00;;;;;28.36;34.05;100725.66;244535;1180;88574;-74
2024/04/01 09:54:00;;;;;;;;;16.67;13.67;;;;;28.44;33.64;100720.25;244865;1183;88633;-77
2024/04/01 09:59:33;;;;;;;;;15.33;13.00;;;;;28.53;33.46;100711.11;244731;1183;89088;-77
2024/04/01 10:05:01;;;;;;;;;15.00;12.75;;;;;28.67;33.24;100706.60;244793;1185;89146;-75
2024/04/01 10:10:52;;;;;;;;;16.25;15.50;;;;;28.80;32.99;100698.05;244779;1183;88172;-75
2024/04/01 10:16:20;;;;;;;;;14.50;13.50;;;;;28.92;32.65;100688.59;244290;1186;89043;-75
2024/04/01 10:21:36;;;;;;;;;15.33;13.33;;;;;29.03;32.58;100684.84;245040;1183;88456;-74
2024/04/01 10:27:11;;;;;;;;;17.25;13.50;;;;;29.12;32.23;100680.81;245118;1180;88442;-75
2024/04/01 10:33:19;;;;;;;;;16.00;11.25;;;;;29.16;32.07;100687.61;245068;1183;87851;-75
2024/04/01 10:39:12;;;;;;;;;17.00;13.67;;;;;29.24;31.97;100690.91;244442;1183;89445;-75
2024/04/01 10:44:25;;;;;;;;;13.50;13.00;;;;;29.33;31.52;100688.42;244825;1180;88126;-75
2024/04/01 10:50:06;;;;;;;;;13.00;12.75;;;;;29.42;31.23;100689.25;244905;1180;89008;-71
2024/04/01 10:55:27;;;;;;;;;17.00;13.67;;;;;29.52;31.28;100687.22;244691;1183;89341;-73
2024/04/01 11:00:46;;;;;;;;;16.25;13.25;;;;;29.59;31.13;100676.58;244809;1183;87994;-74
2024/04/01 11:06:14;;;;;;;;;15.00;13.50;;;;;29.68;30.86;100661.77;245173;1183;88161;-75
2024/04/01 11:11:42;;;;;;;;;15.25;12.00;;;;;29.78;30.70;100666.61;245125;1183;89435;-74
2024/04/01 11:16:51;;;;;;;;;14.50;14.25;;;;;29.75;30.88;100655.63;244684;1179;87892;-74
2024/04/01 11:22:00;;;;;;;;;31.25;18.50;;;;;29.57;32.24;100659.30;244797;1186;87792;-81
2024/04/01 11:27:32;;;;;;;;;30.67;22.00;;;;;29.50;32.44;100656.81;244890;1185;88737;-81
2024/04/01 11:32:38;;;;;;;;;21.50;17.25;;;;;29.51;33.60;100646.68;244871;1180;89310;-81
2024/04/01 11:38:03;;;;;;;;;27.75;21.50;;;;;29.62;31.85;100646.76;245211;1183;87581;-81
2024/04/01 11:43:11;;;;;;;;;19.00;17.00;;;;;29.79;31.55;100634.80;244871;1180;88075;-79
2024/04/01 11:48:16;;;;;;;;;27.00;20.67;;;;;29.91;31.48;100629.43;245181;1183;87563;-81
2024/04/01 11:53:21;;;;;;;;;19.75;16.00;;;;;29.97;31.43;100626.12;245046;1183;88799;-80
2024/04/01 11:58:27;;;;;;;;;29.00;20.00;;;;;29.97;31.22;100620.01;243797;1192;87619;-79
2024/04/01 12:03:39;;;;;;;;;21.50;16.00;;;;;29.91;31.42;100616.73;243337;1179;87588;-82
2024/04/01 12:08:44;;;;;;;;;18.00;15.50;;;;;29.85;31.44;100605.42;245020;1183;87595;-81
2024/04/01 12:13:51;;;;;;;;;23.50;16.50;;;;;29.85;31.51;100596.37;244983;1183;87663;-79
2024/04/01 12:18:56;;;;;;;;;19.00;16.00;;;;;29.81;31.40;100597.91;245311;1180;87594;-79
2024/04/01 12:24:03;;;;;;;;;25.67;18.33;;;;;29.80;31.31;100601.39;244986;1183;88718;-82
2024/04/01 12:29:13;;;;;;;;;18.33;15.67;;;;;29.73;31.44;100600.38;245005;1183;89558;-81
2024/04/01 12:34:17;;;;;;;;;18.33;15.67;;;;;29.68;31.42;100595.57;244923;1180;88554;-81
2024/04/01 12:39:21;;;;;;;;;23.00;15.33;;;;;29.60;31.45;100586.16;244935;1182;87855;-82
2024/04/01 12:44:26;;;;;;;;;24.50;14.75;;;;;29.48;31.61;100580.27;244959;1183;88352;-81
2024/04/01 12:49:31;;;;;;;;;19.00;16.33;;;;;29.39;31.64;100575.44;245316;1192;86923;-81
2024/04/01 12:55:13;;;;;;;;;14.75;14.25;;;;;29.32;31.84;100571.72;239959;1190;89025;-79
2024/04/01 13:00:24;;;;;;;;;17.75;14.75;;;;;29.28;31.91;100564.32;242574;1180;88035;-78
2024/04/01 13:06:03;;;;;;;;;19.00;14.50;;;;;29.22;31.89;100558.45;244900;1183;87904;-78
2024/04/01 13:11:46;;;;;;;;;18.50;17.00;;;;;29.13;32.18;100547.45;244710;1186;88358;-78
2024/04/01 13:17:08;;;;;;;;;16.33;14.67;;;;;29.01;32.29;100545.25;244939;1192;88213;-76
2024/04/01 13:22:24;;;;;;;;;18.00;13.67;;;;;28.93;32.32;100545.14;245319;1183;87064;-76
2024/04/01 13:27:45;;;;;;;;;18.50;16.00;;;;;28.88;32.59;100540.71;245283;1183;88783;-77
2024/04/01 13:33:07;;;;;;;;;19.00;15.00;;;;;28.86;32.29;100530.06;245339;1183;88887;-76
2024/04/01 13:38:58;;;;;;;;;15.25;13.50;;;;;28.87;32.45;100523.08;245476;1179;87697;-76
2024/04/01 13:44:46;;;;;;;;;21.00;15.75;;;;;28.85;32.32;100512.66;244482;1183;87540;-76
2024/04/01 13:50:17;;;;;;;;;13.25;12.75;;;;;28.85;32.27;100508.70;242873;1183;88608;-75
2024/04/01 13:55:35;;;;;;;;;18.33;15.00;;;;;28.87;32.38;100499.36;244983;1180;88632;-76
2024/04/01 14:00:47;;;;;;;;;21.25;17.25;;;;;28.83;32.17;100490.64;245331;1183;89135;-76
2024/04/01 14:06:42;;;;;;;;;21.25;16.00;;;;;28.79;32.41;100483.29;245313;1184;88222;-76
2024/04/01 14:12:19;;;;;;;;;18.00;15.00;;;;;28.75;32.32;100480.95;244786;1186;89342;-76
2024/04/01 14:17:41;;;;;;;;;18.50;15.25;;;;;28.71;32.49;100476.59;244646;1184;87414;-75
2024/04/01 14:22:45;;;;;;;;;22.67;17.00;;;;;28.67;32.34;100464.11;244763;1185;88418;-76
2024/04/01 14:27:50;;;;;;;;;16.00;14.25;;;;;28.67;32.31;100464.78;244738;1185;87547;-75
2024/04/01 14:32:56;;;;;;;;;18.33;13.67;;;;;28.67;32.35;100453.79;244945;1185;88576;-76
2024/04/01 14:38:02;;;;;;;;;17.67;15.67;;;;;28.63;32.07;100452.19;244906;1185;88977;-75
2024/04/01 14:43:07;;;;;;;;;20.50;16.00;;;;;28.61;32.17;100450.78;244888;1182;89283;-75
2024/04/01 14:48:13;;;;;;;;;12.75;11.25;;;;;28.59;32.25;100450.11;242840;1182;88556;-73
2024/04/01 14:53:17;;;;;;;;;14.50;14.50;;;;;28.47;32.23;100453.25;243113;1186;88465;-73
2024/04/01 14:58:22;;;;;;;;;18.50;14.50;;;;;28.38;32.15;100448.69;243153;1186;87742;-74
2024/04/01 15:03:30;;;;;;;;;16.33;12.00;;;;;28.29;32.08;100450.20;243160;1193;87029;-73
2024/04/01 15:08:34;;;;;;;;;22.00;18.00;;;;;28.22;32.38;100445.80;243451;1186;88776;-75
2024/04/01 15:13:43;;;;;;;;;15.00;12.00;;;;;28.15;32.14;100440.98;243289;1183;87440;-75
2024/04/01 15:18:47;;;;;;;;;20.00;13.75;;;;;28.12;32.37;100434.13;244928;1183;88297;-75
2024/04/01 15:23:51;;;;;;;;;14.00;13.00;;;;;28.14;32.53;100425.73;244955;1180;89287;-75
2024/04/01 15:28:54;;;;;;;;;18.25;14.50;;;;;28.15;32.47;100413.86;244961;1186;88302;-75
2024/04/01 15:33:59;;;;;;;;;17.25;13.00;;;;;28.13;32.56;100409.77;245161;1180;88789;-75
2024/04/01 15:39:04;;;;;;;;;15.00;14.67;;;;;28.11;32.62;100403.44;244715;1185;88349;-74
2024/04/01 15:44:10;;;;;;;;;17.75;14.75;;;;;28.08;32.67;100401.81;244772;1185;88282;-75
2024/04/01 15:49:15;;;;;;;;;14.00;12.50;;;;;28.05;32.84;100399.77;244747;1187;88688;-75
2024/04/01 15:54:19;;;;;;;;;13.50;10.75;;;;;28.01;32.96;100393.04;244763;1185;88058;-75
2024/04/01 15:59:25;;;;;;;;;15.75;13.25;;;;;27.97;32.90;100381.19;244720;1187;88816;-75
2024/04/01 16:04:30;;;;;;;;;17.50;15.25;;;;;27.95;32.93;100379.48;244772;1186;87606;-75
2024/04/01 16:09:36;;;;;;;;;16.50;13.75;;;;;27.91;32.97;100379.83;244727;1179;87476;-75
2024/04/01 16:14:40;;;;;;;;;14.00;12.00;;;;;27.88;33.09;100383.51;244780;1186;88447;-75
2024/04/01 16:19:44;;;;;;;;;11.67;11.00;;;;;27.86;33.26;100387.61;244738;1182;88688;-75
2024/04/01 16:24:49;;;;;;;;;13.33;11.33;;;;;27.83;33.09;100393.41;244937;1185;89562;-75
2024/04/01 16:30:04;;;;;;;;;21.00;13.00;;;;;27.81;33.26;100392.36;244185;1186;88228;-75
2024/04/01 16:35:08;;;;;;;;;14.50;11.00;;;;;27.73;33.16;100393.50;243245;1179;88862;-75
2024/04/01 16:40:14;;;;;;;;;14.25;14.25;;;;;27.62;33.50;100397.73;243115;1186;87407;-75
2024/04/01 16:45:18;;;;;;;;;14.00;12.00;;;;;27.55;33.53;100398.44;243121;1185;88499;-75
2024/04/01 16:50:21;;;;;;;;;15.00;13.00;;;;;27.49;33.73;100391.15;243149;1179;87663;-75
2024/04/01 16:55:27;;;;;;;;;13.00;13.00;;;;;27.45;33.88;100385.35;243182;1182;88115;-75
2024/04/01 17:00:32;;;;;;;;;17.33;12.00;;;;;27.42;33.87;100392.61;243127;1186;89400;-75
2024/04/01 17:05:37;;;;;;;;;13.75;13.50;;;;;27.39;33.61;100389.58;243131;1186;88474;-75
2024/04/01 17:10:49;;;;;;;;;14.00;13.33;;;;;27.37;33.99;100387.02;243363;1179;88723;-75
2024/04/01 17:15:55;;;;;;;;;18.25;14.50;;;;;27.35;34.03;100387.89;243239;1184;87775;-75
2024/04/01 17:21:00;;;;;;;;;20.25;17.00;;;;;27.33;33.78;100385.07;243258;1180;88912;-75
2024/04/01 17:26:04;;;;;;;;;14.00;12.33;;;;;27.34;33.95;100378.04;244944;1182;87539;-76
2024/04/01 17:31:10;;;;;;;;;15.50;12.50;;;;;27.41;33.79;100380.48;245269;1180;89034;-75
2024/04/01 17:36:14;;;;;;;;;20.75;13.00;;;;;27.45;33.69;100380.11;245297;1183;88873;-75
2024/04/01 17:41:18;;;;;;;;;15.75;12.50;;;;;27.47;33.43;100387.27;245287;1183;88430;-75
2024/04/01 17:46:24;;;;;;;;;15.00;14.75;;;;;27.47;33.41;100383.86;245013;1183;88535;-75
2024/04/01 17:51:29;;;;;;;;;16.00;12.00;;;;;27.48;33.41;100386.36;244982;1183;88261;-75
2024/04/01 17:56:32;;;;;;;;;18.00;13.67;;;;;27.48;33.46;100390.58;245034;1179;87447;-75
2024/04/01 18:01:37;;;;;;;;;13.50;13.00;;;;;27.47;33.39;100391.78;244958;1186;88183;-75
2024/04/01 18:06:42;;;;;;;;;14.67;13.33;;;;;27.46;33.33;100390.30;244954;1192;89320;-75
2024/04/01 18:11:47;;;;;;;;;14.00;13.00;;;;;27.45;33.32;100395.79;244991;1183;88472;-76
2024/04/01 18:16:50;;;;;;;;;12.67;12.00;;;;;27.44;33.38;100390.83;244956;1183;87959;-76
2024/04/01 18:21:54;;;;;;;;;14.00;12.00;;;;;27.43;33.64;100379.62;244960;1180;88575;-75
2024/04/01 18:27:02;;;;;;;;;15.25;13.25;;;;;27.42;33.45;100380.70;244981;1185;88968;-75
2024/04/01 18:32:07;;;;;;;;;14.67;14.67;;;;;27.42;33.52;100373.89;245009;1192;87486;-75
2024/04/01 18:37:11;;;;;;;;;13.50;13.00;;;;;27.41;33.33;100368.01;244989;1184;87673;-76
2024/04/01 18:42:24;;;;;;;;;14.50;11.75;;;;;27.40;33.35;100363.77;244996;1184;87808;-75
2024/04/01 18:47:31;;;;;;;;;9.75;9.75;;;;;27.39;33.30;100362.38;245317;1183;88716;-75
2024/04/01 18:52:38;;;;;;;;;13.67;11.67;;;;;27.38;33.46;100357.11;245000;1183;88783;-75
2024/04/01 18:57:42;;;;;;;;;18.25;13.25;;;;;27.38;33.57;100354.84;244980;1183;88208;-75
2024/04/01 19:02:46;;;;;;;;;13.00;12.50;;;;;27.36;33.37;100354.34;244989;1184;89034;-75
2024/04/01 19:07:50;;;;;;;;;14.25;12.00;;;;;27.35;33.45;100352.36;245316;1183;88621;-75
2024/04/01 19:12:55;;;;;;;;;15.75;14.50;;;;;27.34;33.60;100349.38;245024;1184;89288;-75
2024/04/01 19:17:58;;;;;;;;;11.00;10.00;;;;;27.33;33.30;100346.23;244985;1192;88736;-75
2024/04/01 19:23:02;;;;;;;;;16.00;14.00;;;;;27.33;33.38;100346.94;244983;1180;88306;-75
2024/04/01 19:28:06;;;;;;;;;21.50;15.50;;;;;27.32;33.28;100344.52;245301;1184;87850;-75
2024/04/01 19:33:11;;;;;;;;;14.50;14.50;;;;;27.31;33.47;100350.23;244970;1180;88083;-75
2024/04/01 19:38:16;;;;;;;;;16.33;14.67;;;;;27.31;33.46;100349.08;245355;1184;87278;-75
2024/04/01 19:43:19;;;;;;;;;13.75;11.25;;;;;27.30;33.49;100347.09;245357;1183;88769;-75
2024/04/01 19:48:26;;;;;;;;;11.75;11.25;;;;;27.30;33.55;100340.50;245002;1180;88491;-75
2024/04/01 19:53:31;;;;;;;;;13.50;12.00;;;;;27.28;33.39;100329.50;245004;1183;88409;-74
2024/04/01 19:58:36;;;;;;;;;12.75;12.75;;;;;27.28;33.36;100326.42;244993;1183;88350;-75
2024/04/01 20:03:44;;;;;;;;;17.67;15.67;;;;;27.26;33.21;100321.02;245008;1184;87683;-75
2024/04/01 20:08:48;;;;;;;;;14.25;11.75;;;;;27.26;33.46;100313.06;245277;1183;88835;-75
2024/04/01 20:13:52;;;;;;;;;13.00;11.00;;;;;27.24;33.32;100304.91;244746;1186;87632;-75
2024/04/01 20:18:55;;;;;;;;;22.67;19.00;;;;;27.24;33.46;100301.47;244731;1186;59182;-74
2024/04/01 20:24:04;;;;;;;;;17.67;12.33;;;;;27.23;33.30;100299.25;244928;1180;88755;-74
2024/04/01 20:29:10;;;;;;;;;11.00;11.00;;;;;27.22;33.34;100296.11;244743;1185;87989;-75
2024/04/01 20:34:18;;;;;;;;;12.00;10.67;;;;;27.21;33.33;100293.42;244726;1186;88764;-75
2024/04/01 20:39:24;;;;;;;;;13.75;11.25;;;;;27.20;33.22;100289.08;244787;1185;88978;-75
2024/04/01 20:44:28;;;;;;;;;15.00;14.25;;;;;27.17;33.29;100276.36;244768;1186;87953;-75
2024/04/01 20:49:38;;;;;;;;;18.00;15.33;;;;;27.16;33.41;100267.14;244797;1185;87687;-75
2024/04/01 20:54:42;;;;;;;;;15.25;11.50;;;;;27.16;33.28;100270.76;244802;1183;88336;-74
2024/04/01 20:59:46;;;;;;;;;14.25;13.75;;;;;27.15;33.38;100268.67;245072;1183;86459;-75
2024/04/01 21:04:50;;;;;;;;;15.25;13.00;;;;;27.14;33.18;100260.19;245149;1186;88183;-74
2024/04/01 21:09:59;;;;;;;;;17.75;15.75;;;;;27.12;33.49;100256.66;243727;1180;88074;-75
2024/04/01 21:15:22;;;;;;;;;11.25;10.25;;;;;27.03;33.41;100254.09;243230;1183;88530;-74
2024/04/01 21:20:26;;;;;;;;;18.75;11.75;;;;;26.96;33.40;100249.20;243225;1192;88054;-75
2024/04/01 21:25:30;;;;;;;;;15.25;12.25;;;;;26.90;33.58;100240.05;243610;1183;88149;-75
2024/04/01 21:30:36;;;;;;;;;17.33;15.33;;;;;26.88;33.62;100229.42;243312;1183;89465;-75
2024/04/01 21:35:40;;;;;;;;;12.50;12.25;;;;;26.87;33.70;100221.57;243563;1184;87912;-75
2024/04/01 21:40:45;;;;;;;;;14.00;12.25;;;;;26.85;33.63;100211.19;243472;1180;87562;-75
2024/04/01 21:45:50;;;;;;;;;14.00;14.00;;;;;26.84;33.78;100209.73;243590;1183;88656;-76
2024/04/01 21:50:55;;;;;;;;;14.50;13.00;;;;;26.85;33.70;100207.02;244977;1183;88354;-75
2024/04/01 21:56:00;;;;;;;;;12.50;10.50;;;;;26.93;33.60;100200.83;245288;1183;88623;-75
2024/04/01 22:01:04;;;;;;;;;16.25;12.75;;;;;26.97;33.46;100191.64;244991;1183;88991;-74
2024/04/01 22:06:08;;;;;;;;;11.75;11.75;;;;;27.00;33.31;100189.41;245284;1183;88837;-75
2024/04/01 22:11:12;;;;;;;;;12.00;11.50;;;;;27.01;33.41;100190.29;244743;1186;87915;-75
2024/04/01 22:16:16;;;;;;;;;14.50;13.00;;;;;27.02;33.45;100188.27;244752;1183;88202;-74
2024/04/01 22:21:20;;;;;;;;;13.00;11.00;;;;;27.03;33.39;100190.02;244780;1186;88916;-75
2024/04/01 22:26:24;;;;;;;;;16.75;14.75;;;;;27.03;33.21;100191.83;244785;1179;88376;-75
2024/04/01 22:31:28;;;;;;;;;13.33;12.00;;;;;27.02;33.20;100190.52;244943;1185;88314;-74
2024/04/01 22:36:31;;;;;;;;;16.50;14.00;;;;;27.02;33.23;100183.15;244773;1185;87021;-75
2024/04/01 22:41:35;;;;;;;;;15.33;12.33;;;;;27.01;33.11;100177.28;244771;1186;88019;-75
2024/04/01 22:46:39;;;;;;;;;13.75;11.25;;;;;27.01;33.29;100173.66;244940;1185;88081;-75
2024/04/01 22:51:44;;;;;;;;;13.33;11.33;;;;;27.00;33.23;100164.66;244758;1185;87633;-75
2024/04/01 22:56:47;;;;;;;;;14.00;12.00;;;;;26.99;33.39;100162.18;244947;1185;89390;-75
2024/04/01 23:01:51;;;;;;;;;16.50;12.75;;;;;26.99;33.14;100159.10;244909;1186;89351;-75
2024/04/01 23:06:55;;;;;;;;;15.00;13.67;;;;;26.98;33.37;100155.23;244810;1187;87260;-74
2024/04/01 23:12:00;;;;;;;;;22.00;16.25;;;;;26.98;33.09;100149.58;244979;1183;88403;-74
2024/04/01 23:17:04;;;;;;;;;15.00;11.75;;;;;26.97;33.26;100151.02;244976;1183;89190;-75
2024/04/01 23:22:08;;;;;;;;;14.67;14.67;;;;;26.96;33.44;100149.59;245315;1183;88244;-75
2024/04/01 23:27:11;;;;;;;;;16.75;12.75;;;;;26.96;33.29;100143.44;244986;1180;87742;-75